createdAt,value
2023-02-27T15:07:22.638Z,992.06
2023-02-27T15:08:22.581Z,992.03
2023-02-27T15:09:22.573Z,992.04
2023-02-27T15:10:23.356Z,992.01
2023-02-27T15:11:22.575Z,992.09
2023-02-27T15:12:25.351Z,992.06
2023-02-27T15:13:37.327Z,992.02
2023-02-27T15:15:51.181Z,992.14
2023-02-27T15:16:22.562Z,992.03
2023-02-27T15:17:22.508Z,992.05
2023-02-27T15:18:22.476Z,992.24
2023-02-27T15:19:22.566Z,992.09
2023-02-27T15:20:22.454Z,992.11
2023-02-27T15:21:26.405Z,992.12
2023-02-27T15:22:37.468Z,992.05
2023-02-27T15:23:31.619Z,992.12
2023-02-27T15:24:37.646Z,992.12
2023-02-27T15:25:23.438Z,992.16
2023-02-27T15:26:22.416Z,992.14
2023-02-27T15:27:22.446Z,992.25
2023-02-27T15:28:22.383Z,992.28
2023-02-27T15:29:22.365Z,992.23
2023-02-27T15:30:28.963Z,992.29
2023-02-27T15:31:28.232Z,992.31
2023-02-27T15:33:49.055Z,992.28
2023-02-27T15:35:02.338Z,992.21
2023-02-27T15:35:41.371Z,992.29
2023-02-27T15:37:50.692Z,992.32
2023-02-27T15:38:50.640Z,992.33
2023-02-27T15:39:50.616Z,992.39
2023-02-27T15:40:50.616Z,992.32
2023-02-27T15:41:50.614Z,992.36
2023-02-27T15:42:50.583Z,992.42
2023-02-27T15:43:57.287Z,992.35
2023-02-27T15:44:57.485Z,992.31
2023-02-27T15:45:50.641Z,992.41
2023-02-27T15:46:50.576Z,992.36
2023-02-27T15:47:50.559Z,992.33
2023-02-27T15:48:50.513Z,992.41
2023-02-27T15:49:50.501Z,992.46
2023-02-27T15:50:50.510Z,992.52
2023-02-27T15:51:50.536Z,992.40
2023-02-27T15:53:05.248Z,992.29
2023-02-27T15:53:50.822Z,992.36
2023-02-27T15:55:19.036Z,992.44
2023-02-27T15:55:50.505Z,992.45
2023-02-27T15:56:50.459Z,992.44
2023-02-27T15:58:02.337Z,992.47
2023-02-27T15:58:51.507Z,992.49
2023-02-27T15:59:50.392Z,992.46
2023-02-27T16:00:50.644Z,992.52
2023-02-27T16:03:02.599Z,992.44
2023-02-27T16:05:19.900Z,992.43
2023-02-27T16:06:29.885Z,992.45
2023-02-27T16:07:27.531Z,992.45
2023-02-27T16:09:30.383Z,992.49
2023-02-27T16:10:30.355Z,992.49
2023-02-27T16:11:30.338Z,992.52
2023-02-27T16:12:37.846Z,992.56
2023-02-27T16:13:30.299Z,992.50
2023-02-27T16:14:30.277Z,992.55
2023-02-27T16:15:30.290Z,992.60
2023-02-27T16:16:31.816Z,992.60
2023-02-27T16:17:37.968Z,992.56
2023-02-27T16:18:52.671Z,992.61
2023-02-27T16:19:30.220Z,992.61
2023-02-27T16:20:30.228Z,992.60
2023-02-27T16:21:30.215Z,992.54
2023-02-27T16:22:30.219Z,992.57
2023-02-27T16:23:30.184Z,992.56
2023-02-27T16:24:31.171Z,992.56
2023-02-27T16:26:27.099Z,992.62
2023-02-27T16:27:26.713Z,992.64
2023-02-27T16:28:26.690Z,992.64
2023-02-27T16:29:26.678Z,992.64
2023-02-27T16:30:27.292Z,992.69
2023-02-27T16:31:26.770Z,992.62
2023-02-27T16:32:26.735Z,992.65
2023-02-27T16:33:33.287Z,992.64
2023-02-27T16:34:44.597Z,992.66
2023-02-27T16:35:27.729Z,992.67
2023-02-27T16:36:27.234Z,992.64
2023-02-27T16:37:26.605Z,992.75
2023-02-27T16:38:26.607Z,992.80
2023-02-27T16:39:26.574Z,992.76
2023-02-27T16:40:26.679Z,992.72
2023-02-27T16:41:26.625Z,992.72
2023-02-27T16:42:26.955Z,992.74
2023-02-27T16:43:26.613Z,992.82
2023-02-27T16:44:26.518Z,992.82
2023-02-27T16:45:26.596Z,992.79
2023-02-27T16:46:26.842Z,992.80
2023-02-27T16:47:26.487Z,992.76
2023-02-27T16:48:26.501Z,992.80
2023-02-27T16:49:26.464Z,992.90
2023-02-27T16:50:26.489Z,992.87
2023-02-27T16:51:26.462Z,992.84
2023-02-27T16:52:26.436Z,992.85
2023-02-27T16:53:26.440Z,992.88
2023-02-27T16:54:26.409Z,992.86
2023-02-27T16:55:26.424Z,992.87
2023-02-27T16:56:37.638Z,992.85
2023-02-27T16:57:27.374Z,992.86
2023-02-27T16:58:26.388Z,992.93
2023-02-27T16:59:26.356Z,992.96
2023-02-27T17:00:26.350Z,992.93
2023-02-27T17:01:26.389Z,992.96
2023-02-27T17:02:26.324Z,992.96
2023-02-27T17:03:26.308Z,993.00
2023-02-27T17:04:26.426Z,993.04
2023-02-27T17:05:26.299Z,993.01
2023-02-27T17:06:26.687Z,993.11
2023-02-27T17:07:26.273Z,993.08
2023-02-27T17:08:26.260Z,993.14
2023-02-27T17:09:26.248Z,993.12
2023-02-27T17:10:26.275Z,993.14
2023-02-27T17:11:26.248Z,993.12
2023-02-27T17:12:26.230Z,993.14
2023-02-27T17:13:26.213Z,993.18
2023-02-27T17:14:26.231Z,993.23
2023-02-27T17:15:26.184Z,993.17
2023-02-27T17:16:26.533Z,993.22
2023-02-27T17:17:26.161Z,993.26
2023-02-27T17:18:26.176Z,993.22
2023-02-27T17:19:26.144Z,993.29
2023-02-27T17:20:26.149Z,993.25
2023-02-27T17:21:26.134Z,993.30
2023-02-27T17:22:26.135Z,993.30
2023-02-27T17:23:26.104Z,993.26
2023-02-27T17:24:26.123Z,993.30
2023-02-27T17:25:26.081Z,993.33
2023-02-27T17:26:26.453Z,993.36
2023-02-27T17:27:26.056Z,993.41
2023-02-27T17:28:26.045Z,993.37
2023-02-27T17:29:26.037Z,993.35
2023-02-27T17:30:26.115Z,993.34
2023-02-27T17:31:26.022Z,993.37
2023-02-27T17:32:26.026Z,993.40
2023-02-27T17:33:25.993Z,993.43
2023-02-27T17:34:25.981Z,993.36
2023-02-27T17:35:26.003Z,993.44
2023-02-27T17:36:26.375Z,993.46
2023-02-27T17:37:25.976Z,993.46
2023-02-27T17:38:25.939Z,993.46
2023-02-27T17:39:25.938Z,993.52
2023-02-27T17:40:25.913Z,993.49
2023-02-27T17:41:25.950Z,993.52
2023-02-27T17:42:26.008Z,993.55
2023-02-27T17:43:25.884Z,993.56
2023-02-27T17:44:25.877Z,993.54
2023-02-27T17:45:25.860Z,993.49
2023-02-27T17:46:26.804Z,993.57
2023-02-27T17:47:25.842Z,993.60
2023-02-27T17:48:25.866Z,993.58
2023-02-27T17:49:25.826Z,993.56
2023-02-27T17:50:25.818Z,993.64
2023-02-27T17:51:25.817Z,993.59
2023-02-27T17:52:25.787Z,993.63
2023-02-27T17:53:25.779Z,993.74
2023-02-27T17:54:25.800Z,993.65
2023-02-27T17:55:25.762Z,993.64
2023-02-27T17:56:26.192Z,993.76
2023-02-27T17:57:25.738Z,993.73
2023-02-27T17:58:25.727Z,993.78
2023-02-27T17:59:25.720Z,993.77
2023-02-27T18:00:25.739Z,993.78
2023-02-27T18:01:26.224Z,993.84
2023-02-27T18:02:25.778Z,993.81
2023-02-27T18:03:25.672Z,993.86
2023-02-27T18:04:25.668Z,993.85
2023-02-27T18:05:25.658Z,993.85
2023-02-27T18:06:26.004Z,993.88
2023-02-27T18:07:25.629Z,993.83
2023-02-27T18:08:25.618Z,993.88
2023-02-27T18:09:25.602Z,993.91
2023-02-27T18:10:25.592Z,993.88
2023-02-27T18:11:25.598Z,993.93
2023-02-27T18:12:25.612Z,993.98
2023-02-27T18:13:25.576Z,993.94
2023-02-27T18:14:25.552Z,994.00
2023-02-27T18:15:25.540Z,994.00
2023-02-27T18:16:25.803Z,993.98
2023-02-27T18:17:25.528Z,993.95
2023-02-27T18:18:25.620Z,993.97
2023-02-27T18:19:25.498Z,994.01
2023-02-27T18:20:25.494Z,994.02
2023-02-27T18:21:25.554Z,994.03
2023-02-27T18:22:25.492Z,994.01
2023-02-27T18:23:25.454Z,994.00
2023-02-27T18:24:25.443Z,994.06
2023-02-27T18:25:25.473Z,994.05
2023-02-27T18:26:30.753Z,994.06
2023-02-27T18:27:26.441Z,994.04
2023-02-27T18:28:25.414Z,994.05
2023-02-27T18:29:25.399Z,994.05
2023-02-27T18:30:25.386Z,994.05
2023-02-27T18:31:25.481Z,994.03
2023-02-27T18:32:25.398Z,994.08
2023-02-27T18:33:25.359Z,994.07
2023-02-27T18:34:25.370Z,994.08
2023-02-27T18:35:25.367Z,994.10
2023-02-27T18:36:25.406Z,994.08
2023-02-27T18:37:25.863Z,994.10
2023-02-27T18:38:25.297Z,994.11
2023-02-27T18:39:25.296Z,994.05
2023-02-27T18:40:25.285Z,994.04
2023-02-27T18:41:25.303Z,994.08
2023-02-27T18:42:25.467Z,994.08
2023-02-27T18:43:25.274Z,994.11
2023-02-27T18:44:25.239Z,994.11
2023-02-27T18:45:25.222Z,994.10
2023-02-27T18:46:25.303Z,994.08
2023-02-27T18:47:25.202Z,994.07
2023-02-27T18:48:25.208Z,994.05
2023-02-27T18:49:25.179Z,994.11
2023-02-27T18:50:25.334Z,994.08
2023-02-27T18:51:25.190Z,994.13
2023-02-27T18:52:25.155Z,994.12
2023-02-27T18:53:25.154Z,994.11
2023-02-27T18:54:25.123Z,994.05
2023-02-27T18:55:25.125Z,994.01
2023-02-27T18:56:25.164Z,994.07
2023-02-27T18:57:25.094Z,994.05
2023-02-27T18:58:25.102Z,994.05
2023-02-27T18:59:25.073Z,994.08
2023-02-27T19:00:25.081Z,994.09
2023-02-27T19:01:25.076Z,994.04
2023-02-27T19:02:25.165Z,994.10
2023-02-27T19:03:25.134Z,994.05
2023-02-27T19:04:25.037Z,994.09
2023-02-27T19:05:25.011Z,994.04
2023-02-27T19:06:25.038Z,994.12
2023-02-27T19:07:24.995Z,994.06
2023-02-27T19:08:25.032Z,994.03
2023-02-27T19:09:24.981Z,994.06
2023-02-27T19:10:24.959Z,994.07
2023-02-27T19:11:24.998Z,994.04
2023-02-27T19:12:24.958Z,994.04
2023-02-27T19:13:24.943Z,994.04
2023-02-27T19:14:24.970Z,994.02
2023-02-27T19:15:24.908Z,994.03
2023-02-27T19:16:24.980Z,994.08
2023-02-27T19:17:24.884Z,994.03
2023-02-27T19:18:24.876Z,994.06
2023-02-27T19:19:24.859Z,994.08
2023-02-27T19:20:24.889Z,994.07
2023-02-27T19:21:24.893Z,994.00
2023-02-27T19:22:24.852Z,994.04
2023-02-27T19:23:24.822Z,993.98
2023-02-27T19:24:24.828Z,994.10
2023-02-27T19:25:24.798Z,994.09
2023-02-27T19:26:24.840Z,994.06
2023-02-27T19:27:24.777Z,994.09
2023-02-27T19:28:24.770Z,994.10
2023-02-27T19:29:24.754Z,994.08
2023-02-27T19:30:24.742Z,994.13
2023-02-27T19:31:24.802Z,994.05
2023-02-27T19:32:24.808Z,994.08
2023-02-27T19:33:24.717Z,994.01
2023-02-27T19:34:24.700Z,994.10
2023-02-27T19:35:24.715Z,994.01
2023-02-27T19:36:24.690Z,994.03
2023-02-27T19:37:24.690Z,994.03
2023-02-27T19:38:24.683Z,994.08
2023-02-27T19:39:24.650Z,994.01
2023-02-27T19:40:24.639Z,994.07
2023-02-27T19:41:24.625Z,993.97
2023-02-27T19:42:24.635Z,994.02
2023-02-27T19:43:24.604Z,993.93
2023-02-27T19:44:24.600Z,994.02
2023-02-27T19:45:24.585Z,994.04
2023-02-27T19:46:24.628Z,994.06
2023-02-27T19:47:24.566Z,994.08
2023-02-27T19:48:24.553Z,994.02
2023-02-27T19:49:24.542Z,994.06
2023-02-27T19:50:24.542Z,994.09
2023-02-27T19:51:24.579Z,994.06
2023-02-27T19:52:24.531Z,994.11
2023-02-27T19:53:24.500Z,994.08
2023-02-27T19:54:24.503Z,994.06
2023-02-27T19:55:24.497Z,994.02
2023-02-27T19:56:24.507Z,994.12
2023-02-27T19:57:24.516Z,994.11
2023-02-27T19:58:24.445Z,994.13
2023-02-27T19:59:24.438Z,994.10
2023-02-27T20:00:24.423Z,994.09
2023-02-27T20:01:24.447Z,994.11
2023-02-27T20:02:24.422Z,994.06
2023-02-27T20:03:24.417Z,994.05
2023-02-27T20:04:24.550Z,994.09
2023-02-27T20:05:24.376Z,994.04
2023-02-27T20:06:24.382Z,994.06
2023-02-27T20:07:24.353Z,994.04
2023-02-27T20:08:24.346Z,994.09
2023-02-27T20:09:24.356Z,994.07
2023-02-27T20:10:24.341Z,994.12
2023-02-27T20:11:24.352Z,994.08
2023-02-27T20:12:24.327Z,994.13
2023-02-27T20:13:24.294Z,994.07
2023-02-27T20:14:24.342Z,994.13
2023-02-27T20:15:24.320Z,994.07
2023-02-27T20:16:24.372Z,994.07
2023-02-27T20:17:24.254Z,994.12
2023-02-27T20:18:24.264Z,994.07
2023-02-27T20:19:24.237Z,994.04
2023-02-27T20:20:24.216Z,994.09
2023-02-27T20:21:24.223Z,994.05
2023-02-27T20:22:24.248Z,994.01
2023-02-27T20:23:24.179Z,994.00
2023-02-27T20:24:24.173Z,993.99
2023-02-27T20:25:24.202Z,994.09
2023-02-27T20:26:24.178Z,994.06
2023-02-27T20:27:24.151Z,994.03
2023-02-27T20:28:24.141Z,994.02
2023-02-27T20:29:24.139Z,994.01
2023-02-27T20:30:24.111Z,994.04
2023-02-27T20:31:24.149Z,994.01
2023-02-27T20:32:24.274Z,994.08
2023-02-27T20:33:24.085Z,994.06
2023-02-27T20:34:24.086Z,994.02
2023-02-27T20:35:24.086Z,994.03
2023-02-27T20:36:24.082Z,993.99
2023-02-27T20:37:24.030Z,994.00
2023-02-27T20:38:24.059Z,994.04
2023-02-27T20:39:24.028Z,994.00
2023-02-27T20:40:24.013Z,994.06
2023-02-27T20:41:24.026Z,994.03
2023-02-27T20:42:23.996Z,993.98
2023-02-27T20:43:23.981Z,993.98
2023-02-27T20:44:23.967Z,993.97
2023-02-27T20:45:23.948Z,993.92
2023-02-27T20:46:23.996Z,993.95
2023-02-27T20:47:23.940Z,993.98
2023-02-27T20:48:23.986Z,993.95
2023-02-27T20:49:23.906Z,993.88
2023-02-27T20:50:23.891Z,993.99
2023-02-27T20:51:23.944Z,993.90
2023-02-27T20:52:23.901Z,993.92
2023-02-27T20:53:26.217Z,993.90
2023-02-27T20:54:23.863Z,993.88
2023-02-27T20:55:23.868Z,993.83
2023-02-27T20:56:23.845Z,993.87
2023-02-27T20:57:23.874Z,993.89
2023-02-27T20:58:23.843Z,993.86
2023-02-27T20:59:23.821Z,993.84
2023-02-27T21:00:23.795Z,993.86
2023-02-27T21:01:23.904Z,993.83
2023-02-27T21:02:23.779Z,993.81
2023-02-27T21:03:24.383Z,993.88
2023-02-27T21:04:24.209Z,993.86
2023-02-27T21:05:23.756Z,993.78
2023-02-27T21:06:23.745Z,993.77
2023-02-27T21:07:23.713Z,993.80
2023-02-27T21:08:23.704Z,993.78
2023-02-27T21:09:23.709Z,993.76
2023-02-27T21:10:23.681Z,993.77
2023-02-27T21:11:23.741Z,993.79
2023-02-27T21:12:23.729Z,993.82
2023-02-27T21:13:23.647Z,993.77
2023-02-27T21:14:23.659Z,993.73
2023-02-27T21:15:23.647Z,993.83
2023-02-27T21:16:23.648Z,993.81
2023-02-27T21:17:23.619Z,993.86
2023-02-27T21:18:23.618Z,993.85
2023-02-27T21:19:23.584Z,993.75
2023-02-27T21:20:23.574Z,993.75
2023-02-27T21:21:23.614Z,993.72
2023-02-27T21:22:23.553Z,993.77
2023-02-27T21:23:23.581Z,993.78
2023-02-27T21:24:23.543Z,993.85
2023-02-27T21:25:23.534Z,993.80
2023-02-27T21:26:23.524Z,993.73
2023-02-27T21:27:23.537Z,993.69
2023-02-27T21:28:23.492Z,993.67
2023-02-27T21:29:23.506Z,993.67
2023-02-27T21:30:23.497Z,993.70
2023-02-27T21:31:23.555Z,993.70
2023-02-27T21:32:23.484Z,993.71
2023-02-27T21:33:23.441Z,993.77
2023-02-27T21:34:23.424Z,993.73
2023-02-27T21:35:23.449Z,993.74
2023-02-27T21:36:23.445Z,993.78
2023-02-27T21:37:23.401Z,993.68
2023-02-27T21:38:23.406Z,993.70
2023-02-27T21:39:23.381Z,993.79
2023-02-27T21:40:23.367Z,993.79
2023-02-27T21:41:23.386Z,993.61
2023-02-27T21:42:23.369Z,993.70
2023-02-27T21:43:23.347Z,993.77
2023-02-27T21:44:23.331Z,993.68
2023-02-27T21:45:23.311Z,993.68
2023-02-27T21:46:23.435Z,993.77
2023-02-27T21:47:23.296Z,993.74
2023-02-27T21:48:23.298Z,993.74
2023-02-27T21:49:23.268Z,993.72
2023-02-27T21:50:23.256Z,993.68
2023-02-27T21:51:38.272Z,993.62
2023-02-27T21:52:24.285Z,993.71
2023-02-27T21:53:23.226Z,993.69
2023-02-27T21:54:23.228Z,993.67
2023-02-27T21:55:23.194Z,993.74
2023-02-27T21:56:23.187Z,993.73
2023-02-27T21:57:23.208Z,993.70
2023-02-27T21:58:23.169Z,993.67
2023-02-27T21:59:23.184Z,993.71
2023-02-27T22:00:23.145Z,993.70
2023-02-27T22:01:23.172Z,993.74
2023-02-27T22:02:23.254Z,993.72
2023-02-27T22:03:23.122Z,993.74
2023-02-27T22:04:23.106Z,993.66
2023-02-27T22:05:23.139Z,993.70
2023-02-27T22:06:23.102Z,993.78
2023-02-27T22:07:23.079Z,993.73
2023-02-27T22:08:23.073Z,993.78
2023-02-27T22:09:23.053Z,993.65
2023-02-27T22:10:23.047Z,993.74
2023-02-27T22:11:23.080Z,993.74
2023-02-27T22:12:23.036Z,993.70
2023-02-27T22:13:23.014Z,993.64
2023-02-27T22:14:22.998Z,993.78
2023-02-27T22:15:23.031Z,993.69
2023-02-27T22:16:23.022Z,993.69
2023-02-27T22:17:22.966Z,993.70
2023-02-27T22:18:22.987Z,993.63
2023-02-27T22:19:22.940Z,993.67
2023-02-27T22:20:22.947Z,993.74
2023-02-27T22:21:22.986Z,993.73
2023-02-27T22:22:22.961Z,993.74
2023-02-27T22:23:22.906Z,993.79
2023-02-27T22:24:22.900Z,993.75
2023-02-27T22:25:22.907Z,993.76
2023-02-27T22:26:22.970Z,993.79
2023-02-27T22:27:22.913Z,993.72
2023-02-27T22:28:22.861Z,993.77
2023-02-27T22:29:22.854Z,993.84
2023-02-27T22:30:22.841Z,993.76
2023-02-27T22:31:22.910Z,993.77
2023-02-27T22:32:22.923Z,993.73
2023-02-27T22:33:22.810Z,993.65
2023-02-27T22:34:22.816Z,993.72
2023-02-27T22:35:22.859Z,993.65
2023-02-27T22:36:22.772Z,993.68
2023-02-27T22:37:22.842Z,993.69
2023-02-27T22:38:22.819Z,993.70
2023-02-27T22:39:22.749Z,993.61
2023-02-27T22:40:22.717Z,993.68
2023-02-27T22:41:22.726Z,993.70
2023-02-27T22:42:22.743Z,993.70
2023-02-27T22:43:22.706Z,993.79
2023-02-27T22:44:22.689Z,993.69
2023-02-27T22:45:22.697Z,993.71
2023-02-27T22:46:22.676Z,993.74
2023-02-27T22:47:22.699Z,993.72
2023-02-27T22:48:22.648Z,993.70
2023-02-27T22:49:22.643Z,993.75
2023-02-27T22:50:22.644Z,993.70
2023-02-27T22:51:22.628Z,993.73
2023-02-27T22:52:22.623Z,993.71
2023-02-27T22:53:22.593Z,993.72
2023-02-27T22:54:22.626Z,993.69
2023-02-27T22:55:22.573Z,993.76
2023-02-27T22:56:22.569Z,993.67
2023-02-27T22:57:22.579Z,993.77
2023-02-27T22:58:22.538Z,993.69
2023-02-27T22:59:22.529Z,993.69
2023-02-27T23:00:22.551Z,993.75
2023-02-27T23:01:22.634Z,993.72
2023-02-27T23:02:22.534Z,993.71
2023-02-27T23:03:22.674Z,993.71
2023-02-27T23:04:22.516Z,993.67
2023-02-27T23:05:22.475Z,993.79
2023-02-27T23:06:22.477Z,993.73
2023-02-27T23:07:22.493Z,993.72
2023-02-27T23:08:22.436Z,993.70
2023-02-27T23:09:22.466Z,993.74
2023-02-27T23:10:22.428Z,993.77
2023-02-27T23:11:22.436Z,993.74
2023-02-27T23:12:22.448Z,993.73
2023-02-27T23:13:22.410Z,993.74
2023-02-27T23:14:22.418Z,993.72
2023-02-27T23:15:22.433Z,993.69
2023-02-27T23:16:22.408Z,993.68
2023-02-27T23:17:22.420Z,993.75
2023-02-27T23:18:22.326Z,993.75
2023-02-27T23:19:22.334Z,993.75
2023-02-27T23:20:22.340Z,993.69
2023-02-27T23:21:22.297Z,993.75
2023-02-27T23:22:22.309Z,993.73
2023-02-27T23:23:22.332Z,993.76
2023-02-27T23:24:22.270Z,993.69
2023-02-27T23:25:22.280Z,993.76
2023-02-27T23:26:22.262Z,993.70
2023-02-27T23:27:26.133Z,993.71
2023-02-27T23:28:22.230Z,993.60
2023-02-27T23:29:22.260Z,993.59
2023-02-27T23:30:22.201Z,993.66
2023-02-27T23:31:22.281Z,993.69
2023-02-27T23:32:22.351Z,993.67
2023-02-27T23:33:22.177Z,993.67
2023-02-27T23:34:22.158Z,993.75
2023-02-27T23:35:22.224Z,993.71
2023-02-27T23:36:22.200Z,993.70
2023-02-27T23:37:22.180Z,993.66
2023-02-27T23:38:22.183Z,993.77
2023-02-27T23:39:22.120Z,993.67
2023-02-27T23:40:22.145Z,993.73
2023-02-27T23:41:22.103Z,993.76
2023-02-27T23:42:22.114Z,993.77
2023-02-27T23:43:22.102Z,993.68
2023-02-27T23:44:22.105Z,993.69
2023-02-27T23:45:22.053Z,993.71
2023-02-27T23:46:22.065Z,993.76
2023-02-27T23:47:22.081Z,993.70
2023-02-27T23:48:22.065Z,993.73
2023-02-27T23:49:22.015Z,993.72
2023-02-27T23:50:22.012Z,993.74
2023-02-27T23:51:22.013Z,993.71
2023-02-27T23:52:22.037Z,993.73
2023-02-27T23:53:22.014Z,993.72
2023-02-27T23:54:21.982Z,993.70
2023-02-27T23:55:21.951Z,993.69
2023-02-27T23:56:21.950Z,993.69
2023-02-27T23:57:21.948Z,993.66
2023-02-27T23:58:21.952Z,993.66
2023-02-27T23:59:21.936Z,993.61
